AirNav   TITAN Aviation Fuels
 
 1142 users online  

TS01 Landry Airport
Georgetown, Texas, USA

GOING TO GEORGETOWN?


FAA INFORMATION EFFECTIVE 19 MAY 2022

Location

FAA Identifier: TS01
Lat/Long: 30-42-45.6870N 097-39-01.0330W
30-42.761450N 097-39.017217W
30.7126908,-97.6502869
(estimated)
Elevation: 780 ft. / 238 m (estimated)
Variation: 07E (1985)
From city: 4 miles N of GEORGETOWN, TX
Time zone: UTC -5 (UTC -6 during Standard Time)
Zip code: 78628

Airport Operations

Airport use: CLOSED INDEFINITELY
Activation date: 11/1983
Control tower: no
ARTCC: HOUSTON CENTER
FSS: SAN ANGELO FLIGHT SERVICE STATION
Attendance: UNATNDD
Segmented circle: no

Airport Communications

WX AWOS-3PT at GTU (2.5 nm SW): PHONE 512-869-3430
WX AWOS-3PT at T74 (14 nm SE): 119.75 (512-352-4995)
WX AWOS-3 at EDC (19 nm S): 118.825 (512-616-2967)

Nearby radio navigation aids

VOR radial/distance  VOR name  Freq  Var
GRKr149/21.0GRAY VOR/DME111.8007E
CWKr337/21.0CENTEX VORTAC112.8006E
AGJr133/38.0GOOCH SPRINGS VORTAC112.5005E

Airport Services

Runway Information

Runway 18/36

Dimensions: 1400 x 30 ft. / 427 x 9 m
Surface: gravel
RUNWAY 18  RUNWAY 36
Traffic pattern: rightleft
Obstructions: 25 ft. bldg, 10 ft. from runway30 ft. pline, 300 ft. from runway

Airport Ownership and Management from official FAA records

Ownership: Privately-owned
Owner: HOWARD LANDRY
BOX 222
GEORGETOWN, TX 78627
Phone 512-863-3773
CELL: 512-965-5452
Manager: HOWARD LANDRY
BOX 222
GEORGETOWN, TX 78627
Phone 512-863-3773

Airport Operational Statistics

Aircraft based on the field: 3
Single engine airplanes: 3
    

Additional Remarks

ELECTRIC WIRES ON EAST & WEST SIDE OF RWY 18/36.
FOR CD CTC AUSTIN APCH AT 512-269-7865.
(ARPT STATUS) ARPT CLSD INDEFLY.

Instrument Procedures

There are no published instrument procedures at TS01.

Some nearby airports with instrument procedures:

KGTU - Georgetown Municipal Airport (3 nm SW)
T74 - Taylor Municipal Airport (14 nm SE)
KEDC - Austin Executive Airport (19 nm S)
KRYW - Lago Vista TX/Rusty Allen Airport (21 nm SW)
KILE - Skylark Field Airport (22 nm N)
 
Loc | Ops | Rwys | IFR | FBO | Links
Com | Nav | Svcs | Stats | Notes
Area around TS01 (Landry Airport)
 
Road maps at: MapQuest Bing Google
 
Aerial photo
No photo
 
Sectional chart

 
Airport distance calculator
Flying to Landry Airport? Find the distance to fly.

From to TS01

Sunrise and sunset
Times for 27-May-2022
 Local
(UTC-5)
 Zulu
(UTC)
Morning civil twilight06:0411:04
Sunrise06:3111:31
Sunset20:2501:25
Evening civil twilight20:5201:52

Current date and time
Zulu (UTC)  27-May-2022 23:23:32
Local (UTC-5)  27-May-2022 18:23:32
 
METAR
KGTU 
3nm S 
272256Z 13006KT 10SM CLR 35/15 A2995 RMK AO2 SLP135 T03500150
KT74 
14nm SE 
272255Z AUTO 08006KT 10SM CLR 34/14 A2993 RMK AO2 T03450139
KEDC 
19nm S 
272255Z AUTO 11004KT 7SM CLR 34/12 A2992 RMK AO2
TAF
KGRK 
23nm NW 
271600Z 2716/2822 VRB06KT 9999 SKC QNH2996INS BECMG 2719/2720 09009KT 9999 SKC QNH2989INS WND 14006KT AFT 2806 BECMG 2815/2816 16012G18KT 9999 SKC QNH2977INS TX35/2720Z TN22/2809Z
KAUS 
26nm S 
271720Z 2718/2824 VRB06KT P6SM FEW100 FM272200 11007KT P6SM FEW060 FM280500 16005KT P6SM SKC FM281000 19003KT P6SM FEW010
NOTAMs
Click for the latest NOTAMs
NOTAMs are issued by the DoD/FAA and will open in a separate window not controlled by AirNav.

 

 
 

Would you like to see your business listed on this page?

 If your business provides an interesting product or service to pilots, flight crews, aircraft, or users of the Landry Airport, you should consider listing it here.  To start the listing process, click on the button below
 
Add a business
 

Other Pages about Landry Airport

Update a link
 
Copyright © AirNav, LLC. All rights reserved. Privacy Policy  Contact